createdAt,value
2022-08-01T00:00:47.676Z,100500.88
2022-08-01T00:01:27.404Z,100500.97
2022-08-01T00:04:42.691Z,100501.16
2022-08-01T00:08:06.544Z,100503.44
2022-08-01T00:28:25.099Z,100509.28
2022-08-01T00:35:07.982Z,100516.50
2022-08-01T00:37:46.105Z,100517.28
2022-08-01T00:41:32.649Z,100522.50
2022-08-01T00:44:51.053Z,100516.13
2022-08-01T00:54:24.665Z,100521.22
2022-08-01T00:58:01.658Z,100527.53
2022-08-01T01:04:42.335Z,100514.09
2022-08-01T01:08:02.989Z,100506.50
2022-08-01T01:11:44.868Z,100501.44
2022-08-01T01:15:06.351Z,100504.38
2022-08-01T01:18:35.292Z,100498.50
2022-08-01T01:30:00.152Z,100491.69
2022-08-01T01:32:53.314Z,100483.28
2022-08-01T01:35:38.289Z,100486.13
2022-08-01T01:42:02.652Z,100489.59
2022-08-01T01:44:41.578Z,100489.56
2022-08-01T01:47:16.350Z,100489.59
2022-08-01T01:50:16.752Z,100479.47
2022-08-01T01:53:51.272Z,100487.16
2022-08-01T01:56:31.990Z,100489.69
2022-08-01T01:59:05.753Z,100483.53
2022-08-01T02:02:05.339Z,100483.19
2022-08-01T02:05:09.874Z,100486.13
2022-08-01T02:08:08.691Z,100483.59
2022-08-01T02:12:07.763Z,100481.81
2022-08-01T02:18:34.185Z,100479.59
2022-08-01T02:22:37.088Z,100480.88
2022-08-01T02:28:47.401Z,100489.34
2022-08-01T02:31:26.027Z,100485.47
2022-08-01T02:34:15.016Z,100482.53
2022-08-01T02:37:00.156Z,100483.41
2022-08-01T02:42:41.495Z,100498.03
2022-08-01T02:45:11.127Z,100501.34
2022-08-01T02:47:51.430Z,100499.69
2022-08-01T02:50:20.180Z,100489.56
2022-08-01T02:53:14.776Z,100490.09
2022-08-01T02:55:45.979Z,100493.84
2022-08-01T02:58:38.261Z,100502.25
2022-08-01T03:01:08.125Z,100492.56
2022-08-01T03:03:48.382Z,100490.06
2022-08-01T03:06:19.598Z,100499.44
2022-08-01T03:09:19.355Z,100498.25
2022-08-01T03:11:51.650Z,100507.94
2022-08-01T03:14:38.805Z,100508.50
2022-08-01T03:17:07.290Z,100503.16
2022-08-01T03:19:36.230Z,100510.69
2022-08-01T03:22:39.215Z,100509.34
2022-08-01T03:25:31.996Z,100500.13
2022-08-01T03:28:13.137Z,100511.94
2022-08-01T03:31:10.586Z,100513.03
2022-08-01T03:33:55.499Z,100515.53
2022-08-01T03:37:10.876Z,100513.63
2022-08-01T03:40:37.244Z,100512.00
2022-08-01T03:43:12.565Z,100511.47
2022-08-01T03:45:52.813Z,100518.16
2022-08-01T03:48:29.107Z,100514.34
2022-08-01T03:51:00.168Z,100511.97
2022-08-01T03:53:36.599Z,100511.47
2022-08-01T03:56:17.753Z,100517.03
2022-08-01T03:58:50.072Z,100513.41
2022-08-01T04:01:19.324Z,100515.47
2022-08-01T04:03:50.794Z,100517.84
2022-08-01T04:09:34.086Z,100528.19
2022-08-01T04:12:20.134Z,100520.50
2022-08-01T04:14:47.997Z,100520.41
2022-08-01T04:17:18.706Z,100521.53
2022-08-01T04:19:51.886Z,100520.31
2022-08-01T04:22:19.078Z,100518.91
2022-08-01T04:25:02.703Z,100512.09
2022-08-01T04:27:50.646Z,100510.84
2022-08-01T04:30:32.023Z,100516.28
2022-08-01T04:33:02.416Z,100523.59
2022-08-01T04:36:03.929Z,100516.03
2022-08-01T04:38:37.829Z,100519.72
2022-08-01T04:41:09.363Z,100521.97
2022-08-01T04:43:38.747Z,100527.34
2022-08-01T04:46:09.106Z,100532.06
2022-08-01T04:48:54.065Z,100531.94
2022-08-01T04:52:03.035Z,100534.34
2022-08-01T04:54:39.275Z,100535.34
2022-08-01T04:57:07.730Z,100529.97
2022-08-01T05:00:26.357Z,100535.75
2022-08-01T05:02:53.521Z,100525.28
2022-08-01T05:05:28.455Z,100537.22
2022-08-01T05:08:07.036Z,100537.66
2022-08-01T05:11:17.278Z,100537.69
2022-08-01T05:13:49.889Z,100541.16
2022-08-01T05:16:43.572Z,100543.56
2022-08-01T05:19:10.925Z,100545.19
2022-08-01T05:21:38.548Z,100545.06
2022-08-01T05:24:50.680Z,100544.81
2022-08-01T05:27:28.852Z,100551.25
2022-08-01T05:30:04.050Z,100543.94
2022-08-01T05:32:33.119Z,100548.09
2022-08-01T05:35:00.603Z,100543.41
2022-08-01T05:37:34.408Z,100544.59
2022-08-01T05:40:04.813Z,100544.75
2022-08-01T05:42:32.114Z,100546.38
2022-08-01T05:45:32.028Z,100542.91
2022-08-01T05:48:30.130Z,100548.59
2022-08-01T05:51:02.867Z,100541.72
2022-08-01T05:53:35.478Z,100548.91
2022-08-01T05:56:38.062Z,100556.59
2022-08-01T05:59:08.554Z,100561.47
2022-08-01T06:01:36.051Z,100561.66
2022-08-01T06:04:03.809Z,100563.06
2022-08-01T06:06:30.940Z,100568.72
2022-08-01T06:09:06.907Z,100561.72
2022-08-01T06:11:34.359Z,100565.56
2022-08-01T06:14:17.713Z,100574.28
2022-08-01T06:17:07.853Z,100577.84
2022-08-01T06:20:11.951Z,100569.78
2022-08-01T06:23:13.637Z,100580.81
2022-08-01T06:26:10.339Z,100583.88
2022-08-01T06:29:20.670Z,100581.84
2022-08-01T06:36:58.142Z,100584.31
2022-08-01T06:41:00.128Z,100589.44
2022-08-01T06:43:58.465Z,100585.81
2022-08-01T06:46:39.397Z,100586.56
2022-08-01T06:49:45.489Z,100588.63
2022-08-01T06:55:52.944Z,100580.69
2022-08-01T07:01:42.585Z,100585.44
2022-08-01T07:19:59.254Z,100589.38
2022-08-01T07:38:20.982Z,100590.53
2022-08-01T07:42:08.461Z,100584.84
2022-08-01T07:45:28.166Z,100596.63
2022-08-01T07:48:55.384Z,100597.63
2022-08-01T07:52:45.120Z,100594.94
2022-08-01T07:55:58.424Z,100600.03
2022-08-01T07:59:13.150Z,100608.44
2022-08-01T08:02:00.989Z,100613.94
2022-08-01T08:04:53.753Z,100622.06
2022-08-01T08:07:24.009Z,100619.94
2022-08-01T08:09:53.955Z,100625.16
2022-08-01T08:15:20.760Z,100622.41
2022-08-01T08:17:59.127Z,100623.31
2022-08-01T08:20:43.420Z,100620.47
2022-08-01T08:27:26.270Z,100627.53
2022-08-01T08:32:53.488Z,100621.66
2022-08-01T08:36:01.892Z,100616.94
2022-08-01T08:41:49.545Z,100622.53
2022-08-01T08:45:14.946Z,100630.47
2022-08-01T08:48:11.027Z,100628.06
2022-08-01T08:51:03.571Z,100633.41
2022-08-01T08:53:34.564Z,100634.19
2022-08-01T08:56:30.762Z,100641.25
2022-08-01T09:05:23.460Z,100642.03
2022-08-01T09:08:29.311Z,100635.09
2022-08-01T09:11:22.784Z,100642.16
2022-08-01T09:14:26.632Z,100640.09
2022-08-01T09:17:21.810Z,100635.66
2022-08-01T09:19:57.837Z,100638.94
2022-08-01T09:22:27.095Z,100651.63
2022-08-01T09:25:59.261Z,100654.28
2022-08-01T09:36:23.273Z,100674.25
2022-08-01T09:39:15.643Z,100679.00
2022-08-01T09:41:54.940Z,100680.00
2022-08-01T09:44:55.524Z,100681.19
2022-08-01T09:47:38.859Z,100677.66
2022-08-01T09:50:12.814Z,100682.16
2022-08-01T09:52:54.003Z,100679.84
2022-08-01T09:55:23.190Z,100680.41
2022-08-01T09:58:04.866Z,100688.22
2022-08-01T10:00:45.281Z,100687.03
2022-08-01T10:03:28.281Z,100697.00
2022-08-01T10:05:55.996Z,100703.88
2022-08-01T10:08:30.122Z,100700.56
2022-08-01T10:11:13.890Z,100694.63
2022-08-01T10:13:47.106Z,100703.16
2022-08-01T10:16:16.711Z,100705.53
2022-08-01T10:18:45.777Z,100711.47
2022-08-01T10:21:15.816Z,100707.44
2022-08-01T10:23:44.946Z,100715.78
2022-08-01T10:26:17.894Z,100712.28
2022-08-01T10:29:24.199Z,100704.28
2022-08-01T10:32:10.284Z,100701.47
2022-08-01T10:34:44.833Z,100700.53
2022-08-01T10:37:15.879Z,100701.00
2022-08-01T10:39:46.866Z,100704.66
2022-08-01T10:42:23.854Z,100700.28
2022-08-01T10:45:16.593Z,100708.69
2022-08-01T10:49:02.095Z,100705.38
2022-08-01T10:51:52.467Z,100711.06
2022-08-01T10:54:35.813Z,100706.31
2022-08-01T10:57:52.686Z,100708.66
2022-08-01T11:00:22.852Z,100712.56
2022-08-01T11:04:01.445Z,100713.31
2022-08-01T11:06:34.933Z,100722.66
2022-08-01T11:10:52.164Z,100728.03
2022-08-01T11:14:12.973Z,100725.16
2022-08-01T11:16:47.071Z,100732.81
2022-08-01T11:24:11.365Z,100730.47
2022-08-01T11:27:35.001Z,100734.00
2022-08-01T11:30:13.393Z,100739.63
2022-08-01T11:33:11.139Z,100749.13
2022-08-01T11:36:16.908Z,100747.63
2022-08-01T11:39:38.242Z,100760.38
2022-08-01T11:42:23.069Z,100750.69
2022-08-01T11:45:20.636Z,100755.19
2022-08-01T11:47:59.687Z,100765.22
2022-08-01T11:50:39.239Z,100766.47
2022-08-01T11:53:16.598Z,100755.22
2022-08-01T11:55:54.540Z,100763.25
2022-08-01T11:58:55.501Z,100756.56
2022-08-01T12:01:36.439Z,100752.25
2022-08-01T12:04:10.161Z,100762.59
2022-08-01T12:07:19.129Z,100750.75
2022-08-01T12:10:01.128Z,100757.56
2022-08-01T12:16:00.394Z,100747.84
2022-08-01T12:18:53.277Z,100750.41
2022-08-01T12:22:30.111Z,100755.44
2022-08-01T12:25:19.659Z,100770.00
2022-08-01T12:28:30.421Z,100769.84
2022-08-01T12:31:07.044Z,100771.03
2022-08-01T12:33:45.544Z,100773.28
2022-08-01T12:37:09.899Z,100778.28
2022-08-01T12:39:54.742Z,100777.03
2022-08-01T12:42:22.308Z,100779.31
2022-08-01T12:45:20.662Z,100776.88
2022-08-01T12:47:55.891Z,100772.69
2022-08-01T12:50:42.045Z,100768.84
2022-08-01T12:53:39.892Z,100768.91
2022-08-01T12:56:18.269Z,100775.03
2022-08-01T12:59:27.713Z,100760.88
2022-08-01T13:02:10.223Z,100763.06
2022-08-01T13:05:00.287Z,100766.97
2022-08-01T13:08:42.829Z,100776.88
2022-08-01T13:12:04.299Z,100779.00
2022-08-01T13:14:50.383Z,100778.66
2022-08-01T13:17:40.523Z,100780.09
2022-08-01T13:20:11.651Z,100781.94
2022-08-01T13:22:39.566Z,100776.81
2022-08-01T13:25:22.998Z,100776.28
2022-08-01T13:28:12.144Z,100774.38
2022-08-01T13:31:11.629Z,100762.34
2022-08-01T13:33:54.285Z,100772.44
2022-08-01T13:36:39.237Z,100781.22
2022-08-01T13:39:29.458Z,100773.75
2022-08-01T13:42:06.999Z,100773.06
2022-08-01T13:45:14.426Z,100776.97
2022-08-01T13:48:03.737Z,100778.97
2022-08-01T13:50:35.675Z,100772.06
2022-08-01T13:53:06.353Z,100775.28
2022-08-01T13:55:36.746Z,100776.25
2022-08-01T13:58:05.054Z,100774.34
2022-08-01T14:00:35.785Z,100778.06
2022-08-01T14:03:03.705Z,100783.81
2022-08-01T14:05:34.992Z,100792.91
2022-08-01T14:08:02.250Z,100790.59
2022-08-01T14:10:30.154Z,100798.50
2022-08-01T14:12:58.976Z,100790.16
2022-08-01T14:15:37.311Z,100785.06
2022-08-01T14:18:09.538Z,100792.09
2022-08-01T14:20:46.516Z,100790.13
2022-08-01T14:23:16.350Z,100793.59
2022-08-01T14:26:01.790Z,100799.03
2022-08-01T14:28:34.351Z,100796.28
2022-08-01T14:31:01.576Z,100789.41
2022-08-01T14:33:29.083Z,100794.91
2022-08-01T14:36:06.728Z,100798.63
2022-08-01T14:38:48.150Z,100802.13
2022-08-01T14:41:19.478Z,100799.72
2022-08-01T14:43:46.975Z,100803.22
2022-08-01T14:46:14.498Z,100804.81
2022-08-01T14:48:48.599Z,100818.06
2022-08-01T14:51:15.763Z,100814.66
2022-08-01T14:53:50.899Z,100822.97
2022-08-01T14:56:37.912Z,100830.84
2022-08-01T14:59:20.917Z,100818.09
2022-08-01T15:01:55.057Z,100820.19
2022-08-01T15:04:29.224Z,100822.28
2022-08-01T15:07:11.138Z,100823.16
2022-08-01T15:09:44.773Z,100817.91
2022-08-01T15:12:15.458Z,100823.50
2022-08-01T15:14:50.548Z,100826.97
2022-08-01T15:17:33.364Z,100832.09
2022-08-01T15:20:07.717Z,100827.69
2022-08-01T15:25:25.004Z,100831.69
2022-08-01T15:27:52.686Z,100822.66
2022-08-01T15:30:27.429Z,100827.69
2022-08-01T15:32:55.334Z,100822.34
2022-08-01T15:35:28.683Z,100821.78
2022-08-01T15:37:56.117Z,100833.44
2022-08-01T15:41:15.488Z,100822.41
2022-08-01T15:43:44.151Z,100824.59
2022-08-01T15:46:12.761Z,100830.56
2022-08-01T15:48:41.019Z,100824.53
2022-08-01T15:51:10.631Z,100836.69
2022-08-01T15:53:40.951Z,100831.09
2022-08-01T15:56:11.236Z,100832.47
2022-08-01T15:58:40.525Z,100836.06
2022-08-01T16:01:07.748Z,100831.94
2022-08-01T16:03:37.843Z,100840.75
2022-08-01T16:06:25.743Z,100834.50
2022-08-01T16:08:52.914Z,100829.59
2022-08-01T16:11:20.706Z,100840.06
2022-08-01T16:13:48.720Z,100838.19
2022-08-01T16:16:19.039Z,100840.00
2022-08-01T16:18:46.549Z,100834.22
2022-08-01T16:21:31.888Z,100839.28
2022-08-01T16:24:01.591Z,100849.72
2022-08-01T16:26:28.833Z,100844.31
2022-08-01T16:28:56.295Z,100851.13
2022-08-01T16:31:50.107Z,100844.78
2022-08-01T16:34:27.460Z,100850.50
2022-08-01T16:37:07.575Z,100841.19
2022-08-01T16:39:35.392Z,100836.91
2022-08-01T16:42:02.770Z,100845.41
2022-08-01T16:44:33.640Z,100841.41
2022-08-01T16:47:05.224Z,100846.31
2022-08-01T16:49:33.272Z,100836.13
2022-08-01T16:52:01.177Z,100842.84
2022-08-01T16:54:28.886Z,100840.63
2022-08-01T16:57:07.865Z,100851.44
2022-08-01T16:59:41.227Z,100843.28
2022-08-01T17:02:13.931Z,100840.72
2022-08-01T17:04:41.333Z,100844.81
2022-08-01T17:07:08.872Z,100835.16
2022-08-01T17:09:43.362Z,100850.03
2022-08-01T17:12:13.172Z,100847.78
2022-08-01T17:14:41.467Z,100849.06
2022-08-01T17:17:10.523Z,100854.94
2022-08-01T17:19:38.008Z,100851.66
2022-08-01T17:22:05.543Z,100852.53
2022-08-01T17:24:32.784Z,100852.78
2022-08-01T17:27:02.909Z,100851.19
2022-08-01T17:29:43.967Z,100846.97
2022-08-01T17:32:13.293Z,100861.88
2022-08-01T17:34:42.840Z,100851.22
2022-08-01T17:37:13.786Z,100852.41
2022-08-01T17:39:41.550Z,100852.09
2022-08-01T17:42:11.075Z,100858.22
2022-08-01T17:44:39.097Z,100855.16
2022-08-01T17:47:09.285Z,100859.50
2022-08-01T17:52:26.201Z,100863.00
2022-08-01T17:54:57.269Z,100860.59
2022-08-01T17:57:30.984Z,100863.66
2022-08-01T17:59:58.545Z,100867.97
2022-08-01T18:02:26.570Z,100873.22
2022-08-01T18:04:54.245Z,100873.13
2022-08-01T18:07:22.411Z,100874.44
2022-08-01T18:10:11.763Z,100873.31
2022-08-01T18:12:39.382Z,100876.84
2022-08-01T18:15:07.182Z,100871.84
2022-08-01T18:17:34.514Z,100879.38
2022-08-01T18:20:01.655Z,100881.41
2022-08-01T18:22:33.136Z,100877.56
2022-08-01T18:25:05.533Z,100877.00
2022-08-01T18:28:22.279Z,100875.41
2022-08-01T18:30:23.654Z,100875.91
2022-08-01T18:32:50.756Z,100878.31
2022-08-01T18:35:21.023Z,100875.22
2022-08-01T18:37:55.285Z,100883.25
2022-08-01T18:40:23.365Z,100885.41
2022-08-01T18:42:50.740Z,100900.03
2022-08-01T18:45:18.137Z,100894.50
2022-08-01T18:47:46.374Z,100888.31
2022-08-01T18:50:13.784Z,100892.97
2022-08-01T18:52:42.755Z,100895.50
2022-08-01T18:55:10.398Z,100895.41
2022-08-01T18:57:42.107Z,100898.63
2022-08-01T19:00:11.547Z,100908.09
2022-08-01T19:02:38.672Z,100914.84
2022-08-01T19:05:06.505Z,100917.38
2022-08-01T19:08:05.126Z,100919.84
2022-08-01T19:10:21.613Z,100917.97
2022-08-01T19:12:49.178Z,100917.13
2022-08-01T19:15:16.619Z,100924.41
2022-08-01T19:17:45.370Z,100934.25
2022-08-01T19:20:15.659Z,100935.25
2022-08-01T19:22:42.985Z,100934.75
2022-08-01T19:25:10.199Z,100936.91
2022-08-01T19:27:44.189Z,100938.75
2022-08-01T19:30:12.330Z,100941.53
2022-08-01T19:32:42.061Z,100946.91
2022-08-01T19:35:15.201Z,100953.72
2022-08-01T19:37:47.129Z,100950.50
2022-08-01T19:40:26.315Z,100961.84
2022-08-01T19:42:57.466Z,100962.00
2022-08-01T19:45:29.971Z,100962.97
2022-08-01T19:48:01.085Z,100958.28
2022-08-01T19:50:32.339Z,100958.06
2022-08-01T19:53:07.572Z,100960.22
2022-08-01T19:55:41.274Z,100967.63
2022-08-01T19:58:26.358Z,100966.16
2022-08-01T20:00:54.686Z,100974.72
2022-08-01T20:03:23.643Z,100970.19
2022-08-01T20:05:51.973Z,100977.25
2022-08-01T20:08:24.548Z,100985.97
2022-08-01T20:10:52.845Z,100984.09
2022-08-01T20:13:21.423Z,100988.13
2022-08-01T20:15:49.347Z,100997.22
2022-08-01T20:18:17.818Z,100995.03
2022-08-01T20:20:47.279Z,101003.13
2022-08-01T20:23:18.719Z,101006.78
2022-08-01T20:25:54.834Z,101001.28
2022-08-01T20:28:27.815Z,101013.91
2022-08-01T20:31:05.515Z,101008.94
2022-08-01T20:33:39.432Z,101014.47
2022-08-01T20:36:12.041Z,101007.88
2022-08-01T20:38:56.535Z,101020.06
2022-08-01T20:41:26.979Z,101022.63
2022-08-01T20:43:59.506Z,101012.91
2022-08-01T20:46:29.307Z,101014.81
2022-08-01T20:49:00.893Z,101023.16
2022-08-01T20:51:31.799Z,101029.69
2022-08-01T20:53:59.121Z,101032.03
2022-08-01T20:56:45.282Z,101038.03
2022-08-01T20:59:54.874Z,101040.06
2022-08-01T21:02:54.292Z,101037.38
2022-08-01T21:05:30.813Z,101040.38
2022-08-01T21:08:29.629Z,101041.53
2022-08-01T21:10:59.857Z,101044.59
2022-08-01T21:13:41.189Z,101041.69
2022-08-01T21:16:23.998Z,101051.56
2022-08-01T21:22:00.658Z,101043.81
2022-08-01T21:24:45.488Z,101053.28
2022-08-01T21:27:33.691Z,101048.41
2022-08-01T21:30:12.641Z,101055.09
2022-08-01T21:32:47.588Z,101051.72
2022-08-01T21:35:18.451Z,101069.63
2022-08-01T21:37:54.025Z,101064.88
2022-08-01T21:40:26.603Z,101068.34
2022-08-01T21:42:59.634Z,101066.91
2022-08-01T21:45:28.196Z,101072.22
2022-08-01T21:47:57.609Z,101073.25
2022-08-01T21:50:26.058Z,101079.16
2022-08-01T21:53:32.491Z,101078.44
2022-08-01T21:57:17.757Z,101083.91
2022-08-01T22:00:29.638Z,101077.88
2022-08-01T22:07:21.617Z,101075.72
2022-08-01T22:10:17.007Z,101083.22
2022-08-01T22:12:47.948Z,101079.28
2022-08-01T22:15:20.582Z,101082.72
2022-08-01T22:17:55.168Z,101084.72
2022-08-01T22:20:27.646Z,101095.41
2022-08-01T22:22:58.979Z,101085.78
2022-08-01T22:25:29.388Z,101084.38
2022-08-01T22:28:10.138Z,101101.69
2022-08-01T22:30:42.745Z,101103.06
2022-08-01T22:33:17.982Z,101105.81
2022-08-01T22:35:56.030Z,101094.22
2022-08-01T22:39:00.541Z,101086.19
2022-08-01T22:42:01.485Z,101089.50
2022-08-01T22:45:05.494Z,101096.63
2022-08-01T22:48:13.068Z,101101.78
2022-08-01T22:51:02.073Z,101106.78
2022-08-01T22:54:02.153Z,101107.50
2022-08-01T22:56:49.505Z,101111.91
2022-08-01T22:59:25.189Z,101114.03
2022-08-01T23:02:20.016Z,101116.28
2022-08-01T23:04:57.442Z,101126.13
2022-08-01T23:07:42.211Z,101112.38
2022-08-01T23:10:16.182Z,101111.19
2022-08-01T23:12:47.773Z,101116.66
2022-08-01T23:15:17.871Z,101102.75
2022-08-01T23:17:52.927Z,101110.41
2022-08-01T23:20:20.591Z,101095.38
2022-08-01T23:22:49.560Z,101091.94
2022-08-01T23:25:19.705Z,101089.56
2022-08-01T23:27:55.706Z,101102.00
2022-08-01T23:30:35.469Z,101109.50
2022-08-01T23:33:05.487Z,101111.13
2022-08-01T23:35:47.690Z,101109.88
2022-08-01T23:38:22.868Z,101112.81
2022-08-01T23:40:53.503Z,101106.53
2022-08-01T23:43:24.418Z,101097.78
2022-08-01T23:46:04.744Z,101093.75
2022-08-01T23:48:38.178Z,101089.13
2022-08-01T23:51:09.337Z,101100.41
2022-08-01T23:53:42.085Z,101102.09
2022-08-01T23:56:12.168Z,101099.97
2022-08-01T23:58:43.061Z,101095.84
